Time;durP1;ratioP1;P1;durP2;ratioP2;P2;SDS_P1;SDS_P2;PMS_P1;PMS_P2;Temp;Humidity;BMP_temperature;BMP_pressure;BME280_temperature;BME280_humidity;BME280_pressure;Samples;Min_cycle;Max_cycle;Signal;HPM_P1;HPM_P2
2023/10/21 00:02:45;;;;;;;1.10;0.80;;;;;;;;;;4921808;29;20189;-84
2023/10/21 00:05:50;;;;;;;0.97;0.63;;;;;;;;;;4919796;29;20705;-84
2023/10/21 00:08:54;;;;;;;2.33;0.77;;;;;;;;;;4898744;29;20198;-84
2023/10/21 00:11:58;;;;;;;1.90;0.70;;;;;;;;;;4921387;29;20192;-85
2023/10/21 00:15:07;;;;;;;4.77;1.00;;;;;;;;;;4909114;29;20232;-85
2023/10/21 00:18:12;;;;;;;2.17;1.00;;;;;;;;;;4921290;29;20220;-84
2023/10/21 00:21:16;;;;;;;1.23;0.80;;;;;;;;;;4921643;29;20193;-85
2023/10/21 00:24:20;;;;;;;0.60;0.60;;;;;;;;;;4899003;29;20193;-85
2023/10/21 00:27:24;;;;;;;0.77;0.67;;;;;;;;;;4898326;29;20185;-84
2023/10/21 00:30:28;;;;;;;1.13;0.50;;;;;;;;;;4909296;29;20184;-85
2023/10/21 00:33:33;;;;;;;1.03;0.67;;;;;;;;;;4920096;29;20193;-84
2023/10/21 00:36:38;;;;;;;0.70;0.50;;;;;;;;;;4920171;29;20725;-84
2023/10/21 00:39:46;;;;;;;2.30;0.60;;;;;;;;;;4919817;29;20189;-84
2023/10/21 00:42:49;;;;;;;2.23;0.47;;;;;;;;;;4897476;29;20189;-85
2023/10/21 00:45:54;;;;;;;1.13;0.67;;;;;;;;;;4897274;29;20220;-84
2023/10/21 00:48:59;;;;;;;3.03;0.60;;;;;;;;;;4897413;29;20635;-85
2023/10/21 00:52:04;;;;;;;0.50;0.50;;;;;;;;;;4898609;29;20507;-85
2023/10/21 00:55:10;;;;;;;0.70;0.60;;;;;;;;;;4889493;29;20228;-84
2023/10/21 00:58:15;;;;;;;1.60;0.60;;;;;;;;;;4899916;29;20212;-84
2023/10/21 01:01:19;;;;;;;3.30;0.50;;;;;;;;;;4910835;29;20189;-84
2023/10/21 01:04:24;;;;;;;1.77;0.70;;;;;;;;;;4899671;29;20197;-84
2023/10/21 01:07:33;;;;;;;1.53;0.63;;;;;;;;;;4911242;29;20185;-83
2023/10/21 01:10:37;;;;;;;1.37;0.80;;;;;;;;;;4922242;29;20189;-84
2023/10/21 01:13:43;;;;;;;0.90;0.50;;;;;;;;;;4899391;29;20550;-84
2023/10/21 01:16:47;;;;;;;1.27;0.53;;;;;;;;;;4910489;29;20220;-84
2023/10/21 01:19:51;;;;;;;1.50;0.50;;;;;;;;;;4899684;29;20185;-84
2023/10/21 01:23:02;;;;;;;0.80;0.60;;;;;;;;;;4921074;29;20189;-84
2023/10/21 01:26:07;;;;;;;2.50;0.70;;;;;;;;;;4899331;29;20588;-85
2023/10/21 01:29:11;;;;;;;0.90;0.60;;;;;;;;;;4899272;29;20181;-84
2023/10/21 01:32:15;;;;;;;0.70;0.60;;;;;;;;;;4898883;29;20520;-84
2023/10/21 01:35:21;;;;;;;1.17;0.70;;;;;;;;;;4910332;29;20220;-84
2023/10/21 01:38:25;;;;;;;0.70;0.60;;;;;;;;;;4921465;29;20213;-84
2023/10/21 01:41:29;;;;;;;1.90;0.80;;;;;;;;;;4909750;29;20189;-84
2023/10/21 01:44:34;;;;;;;0.93;0.60;;;;;;;;;;4922682;29;20184;-84
2023/10/21 01:47:38;;;;;;;2.97;0.90;;;;;;;;;;4910789;29;20193;-84
2023/10/21 01:50:43;;;;;;;1.23;0.80;;;;;;;;;;4923116;29;20193;-85
2023/10/21 01:53:47;;;;;;;2.63;0.90;;;;;;;;;;4889336;29;20627;-84
2023/10/21 01:56:52;;;;;;;1.80;1.00;;;;;;;;;;4899751;29;20228;-84
2023/10/21 01:59:56;;;;;;;1.63;0.90;;;;;;;;;;4910806;29;20181;-84
2023/10/21 02:03:00;;;;;;;1.63;0.83;;;;;;;;;;4899801;29;20192;-84
2023/10/21 02:06:06;;;;;;;1.17;0.60;;;;;;;;;;4899168;29;20232;-84
2023/10/21 02:09:10;;;;;;;0.93;0.60;;;;;;;;;;4899113;29;20626;-84
2023/10/21 02:12:15;;;;;;;2.70;0.67;;;;;;;;;;4920833;29;20189;-83
2023/10/21 02:15:19;;;;;;;1.47;0.60;;;;;;;;;;4898596;29;20232;-84
2023/10/21 02:18:23;;;;;;;5.47;0.60;;;;;;;;;;4898180;29;20220;-84
2023/10/21 02:21:27;;;;;;;0.80;0.60;;;;;;;;;;4920814;29;20524;-84
2023/10/21 02:24:35;;;;;;;2.70;0.80;;;;;;;;;;4898309;29;20634;-84
2023/10/21 02:27:40;;;;;;;0.60;0.50;;;;;;;;;;4909127;29;20193;-84
2023/10/21 02:30:44;;;;;;;2.10;0.50;;;;;;;;;;4898808;29;20189;-84
2023/10/21 02:33:48;;;;;;;1.03;0.50;;;;;;;;;;4898472;29;20192;-84
2023/10/21 02:36:52;;;;;;;1.97;0.80;;;;;;;;;;4909241;29;20577;-84
2023/10/21 02:39:57;;;;;;;0.90;0.60;;;;;;;;;;4908887;29;20212;-84
2023/10/21 02:43:01;;;;;;;0.87;0.50;;;;;;;;;;4920797;29;20638;-84
2023/10/21 02:46:09;;;;;;;1.37;0.67;;;;;;;;;;4897791;29;20220;-84
2023/10/21 02:49:13;;;;;;;1.03;0.60;;;;;;;;;;4908703;29;20189;-84
2023/10/21 02:52:17;;;;;;;3.90;0.70;;;;;;;;;;4908424;29;20189;-84
2023/10/21 02:55:21;;;;;;;5.33;0.73;;;;;;;;;;4908531;29;20563;-84
2023/10/21 02:58:26;;;;;;;0.87;0.60;;;;;;;;;;4908409;29;20221;-84
2023/10/21 03:01:30;;;;;;;2.00;0.73;;;;;;;;;;4907820;29;20189;-84
2023/10/21 03:04:35;;;;;;;2.90;0.70;;;;;;;;;;4897902;29;20193;-84
2023/10/21 03:07:40;;;;;;;1.53;0.50;;;;;;;;;;4919590;29;20193;-84
2023/10/21 03:10:43;;;;;;;1.70;1.03;;;;;;;;;;4908152;29;20212;-84
2023/10/21 03:13:48;;;;;;;1.13;0.87;;;;;;;;;;4908552;29;20650;-84
2023/10/21 03:16:53;;;;;;;0.70;0.70;;;;;;;;;;4918871;29;20228;-83
2023/10/21 03:19:58;;;;;;;0.93;0.73;;;;;;;;;;4896980;29;20212;-84
2023/10/21 03:23:03;;;;;;;2.40;0.80;;;;;;;;;;4907939;29;20193;-84
2023/10/21 03:26:07;;;;;;;1.70;0.90;;;;;;;;;;4907659;29;20224;-84
2023/10/21 03:29:11;;;;;;;0.83;0.60;;;;;;;;;;4919460;29;20185;-84
2023/10/21 03:32:15;;;;;;;1.13;0.60;;;;;;;;;;4918336;29;20630;-84
2023/10/21 03:35:20;;;;;;;4.53;0.80;;;;;;;;;;4907909;29;20224;-85
2023/10/21 03:38:24;;;;;;;0.77;0.60;;;;;;;;;;4919672;29;20567;-84
2023/10/21 03:41:28;;;;;;;1.40;0.50;;;;;;;;;;4908508;29;20189;-85
2023/10/21 03:44:33;;;;;;;0.93;0.60;;;;;;;;;;4896888;29;20192;-85
2023/10/21 03:47:37;;;;;;;0.60;0.57;;;;;;;;;;4897637;29;20188;-84
2023/10/21 03:50:41;;;;;;;1.93;0.60;;;;;;;;;;4897661;29;20185;-84
2023/10/21 03:53:46;;;;;;;1.17;0.50;;;;;;;;;;4897236;29;20193;-84
2023/10/21 03:56:51;;;;;;;0.70;0.50;;;;;;;;;;4918455;29;20225;-84
2023/10/21 03:59:55;;;;;;;1.10;0.50;;;;;;;;;;4920009;29;20555;-85
2023/10/21 04:02:59;;;;;;;0.70;0.53;;;;;;;;;;4897772;29;20192;-84
2023/10/21 04:06:03;;;;;;;0.43;0.40;;;;;;;;;;4918819;29;20236;-85
2023/10/21 04:09:08;;;;;;;2.40;0.43;;;;;;;;;;4919536;29;20206;-85
2023/10/21 04:12:13;;;;;;;1.17;0.60;;;;;;;;;;4918704;29;20192;-84
2023/10/21 04:15:18;;;;;;;1.00;0.50;;;;;;;;;;4919015;29;20221;-84
2023/10/21 04:18:22;;;;;;;1.73;0.40;;;;;;;;;;4920204;29;20197;-85
2023/10/21 04:21:27;;;;;;;1.37;0.50;;;;;;;;;;4920575;29;20184;-84
2023/10/21 04:24:31;;;;;;;3.37;0.60;;;;;;;;;;4921290;29;20189;-85
2023/10/21 04:27:35;;;;;;;1.73;0.50;;;;;;;;;;4910420;29;20185;-85
2023/10/21 04:30:39;;;;;;;1.87;0.40;;;;;;;;;;4901632;29;20184;-85
2023/10/21 04:33:43;;;;;;;1.97;0.50;;;;;;;;;;4922536;29;20193;-84
2023/10/21 04:36:47;;;;;;;1.77;0.47;;;;;;;;;;4900594;29;20563;-85
2023/10/21 04:39:52;;;;;;;1.13;0.50;;;;;;;;;;4912312;29;20666;-85
2023/10/21 04:42:56;;;;;;;1.10;0.60;;;;;;;;;;4924188;29;20646;-84
2023/10/21 04:46:01;;;;;;;0.53;0.40;;;;;;;;;;4911341;29;20228;-84
2023/10/21 04:49:05;;;;;;;2.23;0.50;;;;;;;;;;4923486;29;20496;-84
2023/10/21 04:52:16;;;;;;;1.63;0.50;;;;;;;;;;4911605;29;20189;-85
2023/10/21 04:55:21;;;;;;;9.90;1.17;;;;;;;;;;4911301;29;20216;-84
2023/10/21 04:58:25;;;;;;;0.67;0.40;;;;;;;;;;4900638;29;20193;-85
2023/10/21 05:01:29;;;;;;;0.70;0.33;;;;;;;;;;4911612;29;20193;-84
2023/10/21 05:04:34;;;;;;;0.90;0.50;;;;;;;;;;4922713;29;20534;-84
2023/10/21 05:07:39;;;;;;;0.70;0.37;;;;;;;;;;4922042;29;20189;-85
2023/10/21 05:10:43;;;;;;;0.63;0.30;;;;;;;;;;4922496;29;20618;-83
2023/10/21 05:13:47;;;;;;;0.80;0.37;;;;;;;;;;4921748;29;20184;-82
2023/10/21 05:16:52;;;;;;;1.03;0.40;;;;;;;;;;4910111;29;20228;-83
2023/10/21 05:19:56;;;;;;;3.30;0.40;;;;;;;;;;4921376;29;20220;-82
2023/10/21 05:23:02;;;;;;;0.40;0.40;;;;;;;;;;4921922;29;20197;-83
2023/10/21 05:26:11;;;;;;;0.50;0.30;;;;;;;;;;4898965;29;20224;-83
2023/10/21 05:29:15;;;;;;;0.50;0.40;;;;;;;;;;4908760;29;20185;-82
2023/10/21 05:32:19;;;;;;;0.37;0.37;;;;;;;;;;4920771;29;20539;-83
2023/10/21 05:35:23;;;;;;;0.40;0.40;;;;;;;;;;4920292;29;20232;-83
2023/10/21 05:38:29;;;;;;;0.70;0.50;;;;;;;;;;4920031;29;20193;-83
2023/10/21 05:41:36;;;;;;;1.50;0.47;;;;;;;;;;4888057;29;20642;-83
2023/10/21 05:44:40;;;;;;;0.40;0.40;;;;;;;;;;4909448;29;20185;-83
2023/10/21 05:47:44;;;;;;;0.73;0.30;;;;;;;;;;4920548;29;20559;-83
2023/10/21 05:50:48;;;;;;;0.60;0.40;;;;;;;;;;4921288;29;20189;-82
2023/10/21 05:53:53;;;;;;;0.90;0.50;;;;;;;;;;4909117;29;20646;-83
2023/10/21 05:56:57;;;;;;;1.60;0.50;;;;;;;;;;4887164;29;20224;-83
2023/10/21 06:00:01;;;;;;;4.87;2.90;;;;;;;;;;4908625;29;20229;-83
2023/10/21 06:03:08;;;;;;;5.20;4.70;;;;;;;;;;4908322;29;20185;-83
2023/10/21 06:06:12;;;;;;;2.30;1.87;;;;;;;;;;4907802;29;20232;-82
2023/10/21 06:09:16;;;;;;;1.50;1.40;;;;;;;;;;4919852;29;20544;-83
2023/10/21 06:12:21;;;;;;;1.90;1.07;;;;;;;;;;4908342;29;20531;-82
2023/10/21 06:15:24;;;;;;;2.40;0.63;;;;;;;;;;4919052;29;20229;-82
2023/10/21 06:18:28;;;;;;;1.77;0.70;;;;;;;;;;4897648;29;20181;-83
2023/10/21 06:21:33;;;;;;;2.37;0.60;;;;;;;;;;4920243;29;20181;-82
2023/10/21 06:24:37;;;;;;;1.30;0.90;;;;;;;;;;4919859;29;20189;-83
2023/10/21 06:27:41;;;;;;;1.63;0.90;;;;;;;;;;4907890;29;20189;-82
2023/10/21 06:30:45;;;;;;;1.93;1.20;;;;;;;;;;4919138;29;20634;-82
2023/10/21 06:33:49;;;;;;;1.33;0.90;;;;;;;;;;4907958;29;20189;-82
2023/10/21 06:36:53;;;;;;;2.03;1.03;;;;;;;;;;4918592;29;20536;-82
2023/10/21 06:39:58;;;;;;;3.33;0.80;;;;;;;;;;4907627;29;20220;-83
2023/10/21 06:43:02;;;;;;;1.20;0.73;;;;;;;;;;4917738;29;20196;-82
2023/10/21 06:46:06;;;;;;;2.90;0.60;;;;;;;;;;4919282;29;20228;-82
2023/10/21 06:49:11;;;;;;;0.93;0.70;;;;;;;;;;4907368;29;20180;-82
2023/10/21 06:52:17;;;;;;;1.33;0.80;;;;;;;;;;4918849;29;20188;-82
2023/10/21 06:55:22;;;;;;;1.20;0.90;;;;;;;;;;4918001;29;20229;-82
2023/10/21 06:58:26;;;;;;;1.03;0.57;;;;;;;;;;4896672;29;20189;-82
2023/10/21 07:01:30;;;;;;;1.77;1.10;;;;;;;;;;4917984;29;20532;-82
2023/10/21 07:04:34;;;;;;;1.80;0.57;;;;;;;;;;4917924;29;20642;-81
2023/10/21 07:07:40;;;;;;;0.60;0.40;;;;;;;;;;4918646;29;20646;-83
2023/10/21 07:10:44;;;;;;;0.33;0.33;;;;;;;;;;4928303;29;20319;-82
2023/10/21 07:13:48;;;;;;;1.00;0.63;;;;;;;;;;4918302;29;20284;-82
2023/10/21 07:16:53;;;;;;;2.80;1.00;;;;;;;;;;4917431;29;20229;-82
2023/10/21 07:19:57;;;;;;;2.00;0.70;;;;;;;;;;4918438;29;20221;-82
2023/10/21 07:23:02;;;;;;;0.53;0.50;;;;;;;;;;4928652;29;20185;-82
2023/10/21 07:26:07;;;;;;;0.50;0.50;;;;;;;;;;4927677;29;20220;-82
2023/10/21 07:29:11;;;;;;;1.73;0.40;;;;;;;;;;4917671;29;20185;-82
2023/10/21 07:32:15;;;;;;;3.50;0.60;;;;;;;;;;4917613;29;20189;-82
2023/10/21 07:35:19;;;;;;;0.57;0.43;;;;;;;;;;4917655;29;20224;-82
2023/10/21 07:38:23;;;;;;;0.50;0.50;;;;;;;;;;4917822;29;20189;-82
2023/10/21 07:41:28;;;;;;;0.60;0.43;;;;;;;;;;4917825;29;20280;-82
2023/10/21 07:44:32;;;;;;;0.50;0.40;;;;;;;;;;4928710;29;20666;-82
2023/10/21 07:47:37;;;;;;;2.07;0.43;;;;;;;;;;4918585;29;20185;-82
2023/10/21 07:50:42;;;;;;;0.57;0.50;;;;;;;;;;4917418;29;20181;-82
2023/10/21 07:53:45;;;;;;;0.60;0.50;;;;;;;;;;4928033;29;20193;-82
2023/10/21 07:56:52;;;;;;;0.97;0.60;;;;;;;;;;4917684;29;20229;-82
2023/10/21 08:00:00;;;;;;;1.00;0.50;;;;;;;;;;4917867;29;20220;-82
2023/10/21 08:03:08;;;;;;;0.73;0.53;;;;;;;;;;4917850;29;20188;-82
2023/10/21 08:06:14;;;;;;;5.83;0.70;;;;;;;;;;4918080;29;20713;-82
2023/10/21 08:09:19;;;;;;;0.83;0.43;;;;;;;;;;4919363;29;20193;-84
2023/10/21 08:12:24;;;;;;;0.70;0.50;;;;;;;;;;4919204;29;20193;-84
2023/10/21 08:15:29;;;;;;;0.50;0.50;;;;;;;;;;4896925;29;20729;-85
2023/10/21 08:18:33;;;;;;;0.67;0.30;;;;;;;;;;4919486;29;20523;-85
2023/10/21 08:21:37;;;;;;;0.70;0.40;;;;;;;;;;4907492;29;20212;-85
2023/10/21 08:24:41;;;;;;;2.00;0.60;;;;;;;;;;4919040;29;20193;-84
2023/10/21 08:27:47;;;;;;;0.63;0.40;;;;;;;;;;4885811;29;20196;-85
2023/10/21 08:30:51;;;;;;;4.90;1.43;;;;;;;;;;4908130;29;20184;-85
2023/10/21 08:33:55;;;;;;;0.77;0.47;;;;;;;;;;4897381;29;20196;-82
2023/10/21 08:37:00;;;;;;;0.50;0.43;;;;;;;;;;4920925;29;20221;-84
2023/10/21 08:40:10;;;;;;;1.00;0.60;;;;;;;;;;4907799;29;20217;-84
2023/10/21 08:43:16;;;;;;;0.70;0.50;;;;;;;;;;4919287;29;20638;-85
2023/10/21 08:46:21;;;;;;;0.50;0.40;;;;;;;;;;4908673;29;20225;-84
2023/10/21 08:49:38;;;;;;;1.90;0.40;;;;;;;;;;4920366;29;20185;-85
2023/10/21 08:52:42;;;;;;;1.27;0.53;;;;;;;;;;4885885;29;20189;-87
2023/10/21 08:55:47;;;;;;;0.57;0.50;;;;;;;;;;4905196;29;20229;-86
2023/10/21 08:59:21;;;;;;;1.23;0.70;;;;;;;;;;4894896;29;20189;-87
2023/10/21 09:03:14;;;;;;;1.07;0.60;;;;;;;;;;4910099;29;20197;-86
2023/10/21 09:06:18;;;;;;;0.60;0.40;;;;;;;;;;4895813;29;20236;-86
2023/10/21 09:09:24;;;;;;;0.93;0.60;;;;;;;;;;4899524;29;20192;-85
2023/10/21 09:12:29;;;;;;;0.93;0.57;;;;;;;;;;4906369;29;20185;-86
2023/10/21 09:15:36;;;;;;;0.57;0.40;;;;;;;;;;4897564;29;20694;-86
2023/10/21 09:28:47;;;;;;;0.57;0.50;;;;;;;;;;4838025;29;20207;-87
2023/10/21 09:32:01;;;;;;;0.70;0.60;;;;;;;;;;4886114;29;20276;-87
2023/10/21 09:35:36;;;;;;;2.13;0.87;;;;;;;;;;4908044;29;20216;-88
2023/10/21 09:48:16;;;;;;;1.80;0.50;;;;;;;;;;4907666;29;20181;-88
2023/10/21 09:51:24;;;;;;;2.20;0.70;;;;;;;;;;4918778;29;20189;-88
2023/10/21 09:54:41;;;;;;;0.57;0.40;;;;;;;;;;4897216;29;20529;-87
2023/10/21 09:57:48;;;;;;;0.37;0.30;;;;;;;;;;4896858;29;20698;-87
2023/10/21 10:00:58;;;;;;;0.90;0.50;;;;;;;;;;4886525;29;20692;-87
2023/10/21 10:04:04;;;;;;;1.03;0.57;;;;;;;;;;4896830;29;20191;-88
2023/10/21 10:07:11;;;;;;;2.47;0.60;;;;;;;;;;4886287;29;20215;-88
2023/10/21 10:10:24;;;;;;;1.57;0.40;;;;;;;;;;4897329;29;20520;-87
2023/10/21 10:13:42;;;;;;;0.60;0.30;;;;;;;;;;4896635;29;20666;-88
2023/10/21 10:16:46;;;;;;;1.10;0.40;;;;;;;;;;4885921;29;20223;-87
2023/10/21 10:19:52;;;;;;;0.93;0.33;;;;;;;;;;4907453;29;20531;-88
2023/10/21 10:23:07;;;;;;;1.60;0.40;;;;;;;;;;4897066;29;20194;-88
2023/10/21 10:26:16;;;;;;;0.50;0.30;;;;;;;;;;4907664;29;20227;-88
2023/10/21 10:29:26;;;;;;;1.03;0.70;;;;;;;;;;4896575;29;20191;-88
2023/10/21 10:32:36;;;;;;;1.57;0.40;;;;;;;;;;4907336;29;20178;-88
2023/10/21 10:35:47;;;;;;;0.60;0.30;;;;;;;;;;4896331;29;20223;-88
2023/10/21 10:38:54;;;;;;;0.83;0.43;;;;;;;;;;4907058;29;20184;-88
2023/10/21 10:41:58;;;;;;;0.20;0.20;;;;;;;;;;4906646;29;20224;-87
2023/10/21 10:45:03;;;;;;;0.57;0.30;;;;;;;;;;4918607;29;20229;-87
2023/10/21 10:48:07;;;;;;;1.80;0.60;;;;;;;;;;4906709;29;20536;-87
2023/10/21 10:51:15;;;;;;;0.40;0.30;;;;;;;;;;4896850;29;20636;-87
2023/10/21 10:54:19;;;;;;;0.83;0.50;;;;;;;;;;4896209;29;20191;-86
2023/10/21 10:57:28;;;;;;;1.43;0.30;;;;;;;;;;4907204;29;20635;-86
2023/10/21 11:00:39;;;;;;;0.60;0.30;;;;;;;;;;4906761;29;20219;-88
2023/10/21 11:03:43;;;;;;;0.47;0.30;;;;;;;;;;4896221;29;20532;-86
2023/10/21 11:11:48;;;;;;;0.40;0.37;;;;;;;;;;4958070;29;20184;-85
2023/10/21 11:14:52;;;;;;;0.30;0.30;;;;;;;;;;4935277;29;20187;-85
2023/10/21 11:17:57;;;;;;;0.97;0.60;;;;;;;;;;4924754;29;20570;-84
2023/10/21 11:21:02;;;;;;;2.40;0.60;;;;;;;;;;4958893;29;20215;-83
2023/10/21 11:24:08;;;;;;;2.87;0.50;;;;;;;;;;4958963;29;20191;-84
2023/10/21 11:27:14;;;;;;;3.70;0.60;;;;;;;;;;4947497;29;20538;-84
2023/10/21 11:30:18;;;;;;;0.63;0.40;;;;;;;;;;4958541;29;20184;-83
2023/10/21 11:33:22;;;;;;;9.00;1.67;;;;;;;;;;4959211;29;20641;-84
2023/10/21 11:36:27;;;;;;;1.10;0.50;;;;;;;;;;4956858;28;20219;-84
2023/10/21 11:39:32;;;;;;;4.13;0.63;;;;;;;;;;4946203;29;20184;-83
2023/10/21 11:42:39;;;;;;;0.50;0.37;;;;;;;;;;4935333;29;20220;-83
2023/10/21 11:50:34;;;;;;;0.73;0.30;;;;;;;;;;4957683;29;20187;-84
2023/10/21 11:53:40;;;;;;;0.60;0.30;;;;;;;;;;4941157;29;20192;-83
2023/10/21 12:05:47;;;;;;;0.63;0.40;;;;;;;;;;4925625;29;20192;-83
2023/10/21 12:21:17;;;;;;;0.37;0.23;;;;;;;;;;4961246;29;20673;-82
2023/10/21 12:34:51;;;;;;;0.73;0.37;;;;;;;;;;4874467;29;20221;-84
2023/10/21 14:13:24;;;;;;;3.07;0.70;;;;;;;;;;4975561;23;20250;-86
2023/10/21 20:13:06;;;;;;;2.63;1.73;;;;;;;;;;4989118;23;20250;-83
2023/10/21 20:16:18;;;;;;;1.70;1.10;;;;;;;;;;4914816;29;20651;-84
2023/10/21 20:19:25;;;;;;;1.33;0.90;;;;;;;;;;4917267;29;20176;-84
2023/10/21 20:22:33;;;;;;;0.80;0.80;;;;;;;;;;4909327;29;20567;-84
2023/10/21 20:25:38;;;;;;;1.20;0.80;;;;;;;;;;4909608;29;20177;-83
2023/10/21 20:32:22;;;;;;;1.73;1.10;;;;;;;;;;4922250;29;20229;-84
2023/10/21 20:35:28;;;;;;;1.27;1.00;;;;;;;;;;4922031;29;20193;-84
2023/10/21 20:38:45;;;;;;;2.60;1.00;;;;;;;;;;4910573;29;20638;-84
2023/10/21 20:41:53;;;;;;;3.07;2.50;;;;;;;;;;4921926;29;20229;-84
2023/10/21 20:45:06;;;;;;;2.93;1.70;;;;;;;;;;4909003;29;20189;-84
2023/10/21 20:48:10;;;;;;;1.77;1.50;;;;;;;;;;4920777;29;20185;-84
2023/10/21 20:51:15;;;;;;;1.43;1.33;;;;;;;;;;4909610;29;20192;-83
2023/10/21 20:54:19;;;;;;;1.57;0.90;;;;;;;;;;4908800;29;20185;-84
2023/10/21 20:57:24;;;;;;;2.87;1.00;;;;;;;;;;4910338;29;20192;-84
2023/10/21 21:00:30;;;;;;;1.50;0.97;;;;;;;;;;4909666;29;20189;-85
2023/10/21 21:07:52;;;;;;;1.40;1.10;;;;;;;;;;4920022;29;20192;-84
2023/10/21 21:10:58;;;;;;;2.07;1.00;;;;;;;;;;4901113;29;20196;-84
2023/10/21 21:14:04;;;;;;;2.50;1.20;;;;;;;;;;4901058;29;20193;-84
2023/10/21 21:17:32;;;;;;;;;;;;;;;;;;;;;
2023/10/21 21:21:14;;;;;;;1.93;1.10;;;;;;;;;;4931307;29;20193;-84
2023/10/21 21:24:20;;;;;;;1.93;1.30;;;;;;;;;;4903640;29;20682;-84
2023/10/21 21:27:25;;;;;;;2.03;1.20;;;;;;;;;;4901915;29;20188;-84
2023/10/21 21:30:29;;;;;;;3.73;0.93;;;;;;;;;;4901865;29;20189;-84
2023/10/21 21:34:03;;;;;;;1.80;1.20;;;;;;;;;;4912669;29;20185;-83
2023/10/21 21:37:36;;;;;;;1.43;1.30;;;;;;;;;;4922866;29;20193;-83
2023/10/21 21:40:45;;;;;;;1.50;1.27;;;;;;;;;;4910977;29;20575;-84
2023/10/21 21:43:53;;;;;;;1.17;1.00;;;;;;;;;;4900825;29;20224;-84
2023/10/21 21:47:04;;;;;;;1.23;1.13;;;;;;;;;;4922743;29;20193;-84
2023/10/21 21:50:33;;;;;;;2.27;1.20;;;;;;;;;;4911135;29;20193;-83
2023/10/21 21:53:49;;;;;;;2.03;1.20;;;;;;;;;;4929282;29;20181;-84
2023/10/21 21:56:56;;;;;;;2.20;1.40;;;;;;;;;;4923551;29;20193;-84
2023/10/21 22:00:05;;;;;;;3.97;1.83;;;;;;;;;;4901427;29;20536;-84
2023/10/21 22:03:38;;;;;;;2.00;1.47;;;;;;;;;;4900301;29;20570;-84
2023/10/21 22:06:45;;;;;;;1.83;1.27;;;;;;;;;;4900847;29;20193;-85
2023/10/21 22:09:50;;;;;;;2.20;1.30;;;;;;;;;;4910498;29;20642;-84
2023/10/21 22:12:55;;;;;;;1.43;1.10;;;;;;;;;;4899977;29;20228;-84
2023/10/21 22:16:00;;;;;;;1.80;1.20;;;;;;;;;;4923613;29;20193;-84
2023/10/21 22:19:13;;;;;;;1.17;1.07;;;;;;;;;;4902221;29;20193;-84
2023/10/21 22:22:26;;;;;;;2.40;1.00;;;;;;;;;;4918418;29;20236;-84
2023/10/21 22:25:38;;;;;;;3.30;1.43;;;;;;;;;;4900805;29;20523;-84
2023/10/21 22:28:42;;;;;;;1.83;0.80;;;;;;;;;;4923593;29;20181;-84
2023/10/21 22:31:50;;;;;;;1.00;0.90;;;;;;;;;;4899580;29;20224;-84
2023/10/21 22:34:55;;;;;;;1.43;0.77;;;;;;;;;;4900540;29;20524;-84
2023/10/21 22:38:02;;;;;;;1.57;0.93;;;;;;;;;;4911019;29;20189;-84
2023/10/21 22:41:07;;;;;;;2.97;0.90;;;;;;;;;;4922355;29;20197;-84
2023/10/21 22:44:13;;;;;;;1.53;0.93;;;;;;;;;;4911313;29;20217;-84
2023/10/21 22:47:18;;;;;;;2.17;0.70;;;;;;;;;;4911609;29;20201;-85
2023/10/21 22:50:47;;;;;;;0.93;0.73;;;;;;;;;;4900992;29;20646;-84
2023/10/21 22:54:04;;;;;;;1.10;0.90;;;;;;;;;;4911885;29;20189;-84
2023/10/21 22:57:17;;;;;;;0.77;0.73;;;;;;;;;;4922963;29;20532;-84
2023/10/21 23:00:24;;;;;;;2.40;0.80;;;;;;;;;;4901424;29;20185;-84
2023/10/21 23:03:33;;;;;;;2.70;0.90;;;;;;;;;;4912817;29;20236;-84
2023/10/21 23:06:41;;;;;;;2.13;1.00;;;;;;;;;;4922000;29;20181;-83
2023/10/21 23:09:50;;;;;;;1.20;0.80;;;;;;;;;;4911902;29;20189;-83
2023/10/21 23:13:01;;;;;;;1.17;0.83;;;;;;;;;;4910546;29;20244;-84
2023/10/21 23:16:20;;;;;;;0.97;0.77;;;;;;;;;;4911098;29;20532;-84
2023/10/21 23:19:24;;;;;;;0.83;0.73;;;;;;;;;;4901369;29;20359;-84
2023/10/21 23:22:29;;;;;;;2.03;0.93;;;;;;;;;;4912129;29;20567;-84
2023/10/21 23:25:35;;;;;;;3.03;0.93;;;;;;;;;;4911933;29;20646;-84
2023/10/21 23:28:39;;;;;;;2.40;0.97;;;;;;;;;;4900905;29;20189;-84
2023/10/21 23:31:48;;;;;;;3.00;0.90;;;;;;;;;;4911160;29;20241;-84
2023/10/21 23:34:53;;;;;;;4.60;1.00;;;;;;;;;;4900835;29;20189;-84
2023/10/21 23:37:58;;;;;;;5.53;1.10;;;;;;;;;;4922051;29;20189;-84
2023/10/21 23:41:07;;;;;;;3.17;0.93;;;;;;;;;;4901146;29;20192;-84
2023/10/21 23:44:12;;;;;;;0.80;0.80;;;;;;;;;;4923264;29;20666;-84
2023/10/21 23:47:17;;;;;;;1.10;0.80;;;;;;;;;;4900273;29;20197;-84
2023/10/21 23:50:22;;;;;;;0.70;0.63;;;;;;;;;;4900146;29;20189;-84
2023/10/21 23:53:27;;;;;;;1.23;0.90;;;;;;;;;;4900527;29;20220;-84
2023/10/21 23:56:31;;;;;;;1.57;0.97;;;;;;;;;;4922300;29;20192;-84
2023/10/21 23:59:36;;;;;;;3.83;0.80;;;;;;;;;;4900559;29;20189;-84
